createdAt,value
2022-08-17T00:00:34.995Z,73.38
2022-08-17T00:01:24.126Z,73.38
2022-08-17T00:02:26.953Z,73.38
2022-08-17T00:03:23.129Z,73.38
2022-08-17T00:04:22.100Z,73.48
2022-08-17T00:05:22.093Z,73.58
2022-08-17T00:06:22.082Z,73.68
2022-08-17T00:07:22.072Z,73.78
2022-08-17T00:08:22.052Z,73.98
2022-08-17T00:09:22.069Z,74.08
2022-08-17T00:10:22.020Z,74.18
2022-08-17T00:11:22.023Z,74.29
2022-08-17T00:12:51.263Z,74.18
2022-08-17T00:13:22.995Z,74.18
2022-08-17T00:14:21.989Z,74.29
2022-08-17T00:15:21.991Z,74.18
2022-08-17T00:16:21.964Z,74.08
2022-08-17T00:17:22.951Z,73.88
2022-08-17T00:19:01.411Z,73.78
2022-08-17T00:19:22.941Z,73.55
2022-08-17T00:20:23.364Z,73.55
2022-08-17T00:21:25.092Z,73.44
2022-08-17T00:22:35.122Z,73.44
2022-08-17T00:23:22.882Z,73.55
2022-08-17T00:24:21.881Z,73.75
2022-08-17T00:25:21.863Z,73.75
2022-08-17T00:26:35.807Z,73.55
2022-08-17T00:27:22.850Z,73.65
2022-08-17T00:28:21.833Z,73.75
2022-08-17T00:29:21.821Z,73.75
2022-08-17T00:30:21.803Z,73.75
2022-08-17T00:31:21.803Z,73.65
2022-08-17T00:33:12.247Z,73.55
2022-08-17T00:33:23.573Z,73.65
2022-08-17T00:34:21.763Z,73.75
2022-08-17T00:35:21.753Z,73.95
2022-08-17T00:36:21.746Z,73.98
2022-08-17T00:37:21.743Z,74.08
2022-08-17T00:38:21.742Z,74.18
2022-08-17T00:39:21.712Z,74.38
2022-08-17T00:40:21.702Z,74.49
2022-08-17T00:41:21.694Z,74.58
2022-08-17T00:42:21.674Z,74.69
2022-08-17T00:43:21.664Z,74.79
2022-08-17T00:44:21.673Z,74.89
2022-08-17T00:45:22.643Z,74.79
2022-08-17T00:46:21.625Z,74.79
2022-08-17T00:47:21.615Z,74.69
2022-08-17T00:48:29.625Z,74.49
2022-08-17T00:49:22.625Z,74.49
2022-08-17T00:50:21.584Z,74.49
2022-08-17T00:51:21.574Z,74.49
2022-08-17T00:52:21.567Z,74.38
2022-08-17T00:53:21.554Z,74.38
2022-08-17T00:54:21.544Z,74.29
2022-08-17T00:55:21.635Z,74.29
2022-08-17T00:56:21.517Z,74.29
2022-08-17T00:57:21.513Z,74.29
2022-08-17T00:58:30.437Z,74.49
2022-08-17T00:59:22.493Z,74.38
2022-08-17T01:00:21.515Z,74.49
2022-08-17T01:01:22.085Z,74.49
2022-08-17T01:02:21.475Z,74.38
2022-08-17T01:03:21.437Z,74.49
2022-08-17T01:04:21.428Z,74.29
2022-08-17T01:05:21.418Z,74.18
2022-08-17T01:06:21.437Z,74.29
2022-08-17T01:07:21.431Z,74.05
2022-08-17T01:08:21.377Z,73.95
2022-08-17T01:09:21.408Z,73.85
2022-08-17T01:11:00.476Z,73.65
2022-08-17T01:11:22.377Z,73.65
2022-08-17T01:12:21.338Z,73.65
2022-08-17T01:13:21.332Z,73.65
2022-08-17T01:14:21.319Z,73.85
2022-08-17T01:15:21.308Z,73.95
2022-08-17T01:16:21.298Z,73.95
2022-08-17T01:17:21.316Z,73.85
2022-08-17T01:18:21.296Z,73.95
2022-08-17T01:19:21.267Z,73.95
2022-08-17T01:20:21.259Z,73.95
2022-08-17T01:21:21.253Z,73.98
2022-08-17T01:22:21.219Z,74.18
2022-08-17T01:23:21.396Z,74.49
2022-08-17T01:24:21.199Z,74.93
2022-08-17T01:25:21.200Z,75.33
2022-08-17T01:26:21.180Z,75.67
2022-08-17T01:27:21.175Z,75.96
2022-08-17T01:28:53.073Z,76.17
2022-08-17T01:29:22.180Z,76.47
2022-08-17T01:30:57.879Z,76.67
2022-08-17T01:31:22.120Z,76.77
2022-08-17T01:32:21.108Z,77.01
2022-08-17T01:33:21.099Z,77.01
2022-08-17T01:34:21.083Z,77.11
2022-08-17T01:35:21.091Z,77.21
2022-08-17T01:36:21.060Z,77.21
2022-08-17T01:37:21.061Z,77.21
2022-08-17T01:38:27.157Z,77.21
2022-08-17T01:39:22.033Z,77.08
2022-08-17T01:40:21.062Z,76.87
2022-08-17T01:41:21.011Z,76.77
2022-08-17T01:42:20.990Z,76.67
2022-08-17T01:43:20.989Z,76.57
2022-08-17T01:44:20.970Z,76.47
2022-08-17T01:45:20.962Z,76.37
2022-08-17T01:46:41.950Z,76.37
2022-08-17T01:47:20.941Z,76.37
2022-08-17T01:48:20.930Z,76.37
2022-08-17T01:49:20.955Z,76.37
2022-08-17T01:50:20.911Z,76.47
2022-08-17T01:51:20.922Z,76.57
2022-08-17T01:52:20.881Z,76.57
2022-08-17T01:53:20.873Z,76.77
2022-08-17T01:54:20.865Z,76.77
2022-08-17T01:55:24.560Z,76.87
2022-08-17T01:56:21.861Z,76.97
2022-08-17T01:57:20.832Z,76.97
2022-08-17T01:58:20.822Z,77.08
2022-08-17T01:59:20.812Z,77.17
2022-08-17T02:00:20.793Z,77.17
2022-08-17T02:01:20.833Z,77.31
2022-08-17T02:02:30.253Z,77.42
2022-08-17T02:03:21.763Z,77.51
2022-08-17T02:04:20.753Z,77.51
2022-08-17T02:05:20.742Z,77.51
2022-08-17T02:06:27.658Z,77.51
2022-08-17T02:07:21.762Z,77.51
2022-08-17T02:08:37.135Z,77.62
2022-08-17T02:09:23.273Z,77.72
2022-08-17T02:10:20.693Z,77.72
2022-08-17T02:11:20.675Z,77.82
2022-08-17T02:12:38.790Z,77.92
2022-08-17T02:13:21.704Z,77.92
2022-08-17T02:14:20.644Z,78.02
2022-08-17T02:15:20.642Z,78.02
2022-08-17T02:16:20.624Z,78.12
2022-08-17T02:17:20.614Z,78.12
2022-08-17T02:18:20.604Z,78.22
2022-08-17T02:19:20.625Z,78.42
2022-08-17T02:20:41.351Z,78.52
2022-08-17T02:21:21.574Z,78.52
2022-08-17T02:22:20.555Z,78.63
2022-08-17T02:23:20.554Z,78.66
2022-08-17T02:24:58.755Z,78.72
2022-08-17T02:25:21.545Z,78.76
2022-08-17T02:26:24.238Z,78.76
2022-08-17T02:27:21.505Z,78.72
2022-08-17T02:28:20.495Z,78.72
2022-08-17T02:29:20.487Z,78.76
2022-08-17T02:30:59.699Z,78.86
2022-08-17T02:31:21.483Z,78.96
2022-08-17T02:32:25.418Z,78.96
2022-08-17T02:33:21.444Z,78.96
2022-08-17T02:34:20.435Z,78.96
2022-08-17T02:35:20.417Z,79.16
2022-08-17T02:36:25.421Z,79.16
2022-08-17T02:37:21.404Z,79.27
2022-08-17T02:38:20.385Z,79.27
2022-08-17T02:39:20.377Z,79.36
2022-08-17T02:40:35.603Z,79.36
2022-08-17T02:41:21.377Z,79.47
2022-08-17T02:42:20.341Z,79.57
2022-08-17T02:43:20.336Z,79.67
2022-08-17T02:44:38.922Z,79.71
2022-08-17T02:45:21.307Z,79.91
2022-08-17T02:46:20.313Z,80.11
2022-08-17T02:47:20.311Z,80.31
2022-08-17T02:48:30.778Z,80.51
2022-08-17T02:49:21.268Z,80.62
2022-08-17T02:50:20.260Z,80.82
2022-08-17T02:51:20.249Z,80.92
2022-08-17T02:52:42.705Z,81.02
2022-08-17T02:53:21.248Z,81.02
2022-08-17T02:54:40.614Z,81.02
2022-08-17T02:55:21.208Z,81.02
2022-08-17T02:56:20.181Z,81.12
2022-08-17T02:57:20.176Z,81.22
2022-08-17T02:58:34.714Z,81.26
2022-08-17T02:59:21.171Z,81.22
2022-08-17T03:00:20.139Z,81.32
2022-08-17T03:01:20.140Z,81.46
2022-08-17T03:02:20.118Z,81.36
2022-08-17T03:03:20.111Z,81.46
2022-08-17T03:04:20.120Z,81.32
2022-08-17T03:05:20.091Z,81.22
2022-08-17T03:06:20.070Z,81.36
2022-08-17T03:07:20.063Z,81.46
2022-08-17T03:08:20.052Z,81.52
2022-08-17T03:09:20.041Z,81.56
2022-08-17T03:10:20.049Z,81.46
2022-08-17T03:11:20.021Z,81.46
2022-08-17T03:12:20.000Z,81.56
2022-08-17T03:13:20.001Z,81.76
2022-08-17T03:14:19.981Z,81.87
2022-08-17T03:15:20.998Z,81.96
2022-08-17T03:16:19.981Z,81.96
2022-08-17T03:17:19.950Z,82.07
2022-08-17T03:18:24.841Z,82.27
2022-08-17T03:19:20.928Z,82.17
2022-08-17T03:20:19.911Z,82.07
2022-08-17T03:21:19.924Z,81.96
2022-08-17T03:22:35.672Z,81.96
2022-08-17T03:23:24.267Z,81.96
2022-08-17T03:24:19.870Z,81.87
2022-08-17T03:25:19.872Z,81.87
2022-08-17T03:26:19.870Z,81.87
2022-08-17T03:27:19.840Z,81.87
2022-08-17T03:28:19.832Z,82.07
2022-08-17T03:29:19.812Z,82.07
2022-08-17T03:30:21.249Z,82.17
2022-08-17T03:31:19.792Z,82.07
2022-08-17T03:32:19.803Z,82.03
2022-08-17T03:33:19.776Z,81.93
2022-08-17T03:34:19.753Z,81.82
2022-08-17T03:35:19.750Z,81.82
2022-08-17T03:36:19.741Z,81.73
2022-08-17T03:37:19.723Z,81.73
2022-08-17T03:38:19.744Z,81.73
2022-08-17T03:39:19.702Z,81.73
2022-08-17T03:40:41.082Z,81.73
2022-08-17T03:41:20.685Z,81.82
2022-08-17T03:42:32.396Z,82.03
2022-08-17T03:43:20.673Z,82.13
2022-08-17T03:44:19.643Z,82.13
2022-08-17T03:45:19.634Z,82.13
2022-08-17T03:46:32.457Z,82.17
2022-08-17T03:47:20.611Z,82.27
2022-08-17T03:48:19.594Z,82.27
2022-08-17T03:49:19.613Z,82.47
2022-08-17T03:50:19.575Z,82.57
2022-08-17T03:51:19.564Z,82.67
2022-08-17T03:52:19.554Z,82.78
2022-08-17T03:53:19.552Z,82.98
2022-08-17T03:54:19.535Z,83.07
2022-08-17T03:55:19.547Z,83.07
2022-08-17T03:56:20.504Z,83.12
2022-08-17T03:57:19.527Z,82.98
2022-08-17T03:58:19.485Z,82.87
2022-08-17T03:59:21.024Z,82.78
2022-08-17T04:00:19.465Z,82.78
2022-08-17T04:01:19.512Z,82.87
2022-08-17T04:02:19.444Z,82.78
2022-08-17T04:03:19.435Z,82.78
2022-08-17T04:04:19.415Z,82.67
2022-08-17T04:05:20.414Z,82.67
2022-08-17T04:06:19.395Z,82.78
2022-08-17T04:07:19.406Z,82.78
2022-08-17T04:08:19.375Z,82.67
2022-08-17T04:09:19.367Z,82.57
2022-08-17T04:10:21.013Z,82.47
2022-08-17T04:11:19.347Z,82.37
2022-08-17T04:12:19.336Z,82.37
2022-08-17T04:13:24.205Z,82.37
2022-08-17T04:14:20.306Z,82.47
2022-08-17T04:15:19.297Z,82.67
2022-08-17T04:16:19.291Z,82.78
2022-08-17T04:17:19.277Z,82.98
2022-08-17T04:18:19.318Z,82.98
2022-08-17T04:19:19.258Z,83.18
2022-08-17T04:20:19.258Z,83.32
2022-08-17T04:21:19.238Z,83.52
2022-08-17T04:22:33.203Z,83.72
2022-08-17T04:23:20.227Z,83.82
2022-08-17T04:24:19.197Z,83.92
2022-08-17T04:25:19.177Z,83.82
2022-08-17T04:26:53.024Z,83.92
2022-08-17T04:27:20.167Z,83.92
2022-08-17T04:28:19.147Z,83.92
2022-08-17T04:29:19.158Z,83.92
2022-08-17T04:30:19.127Z,83.88
2022-08-17T04:31:19.117Z,83.88
2022-08-17T04:32:58.377Z,83.58
2022-08-17T04:33:20.123Z,83.48
2022-08-17T04:34:19.872Z,83.48
2022-08-17T04:35:19.100Z,83.38
2022-08-17T04:36:19.059Z,83.18
2022-08-17T04:37:19.039Z,82.98
2022-08-17T04:38:19.051Z,82.78
2022-08-17T04:39:19.029Z,82.64
2022-08-17T04:40:19.066Z,82.64
2022-08-17T04:41:19.018Z,82.43
2022-08-17T04:42:18.990Z,82.23
2022-08-17T04:43:19.046Z,82.03
2022-08-17T04:44:37.031Z,81.93
2022-08-17T04:45:19.959Z,81.68
2022-08-17T04:46:18.971Z,81.48
2022-08-17T04:47:18.930Z,81.48
2022-08-17T04:48:18.928Z,81.38
2022-08-17T04:49:18.948Z,81.08
2022-08-17T04:50:18.927Z,81.18
2022-08-17T04:51:18.895Z,81.18
2022-08-17T04:52:32.256Z,81.32
2022-08-17T04:53:19.870Z,81.32
2022-08-17T04:54:18.860Z,81.42
2022-08-17T04:55:18.841Z,81.42
2022-08-17T04:56:19.044Z,81.52
2022-08-17T04:57:18.850Z,81.38
2022-08-17T04:58:18.811Z,81.38
2022-08-17T04:59:18.801Z,81.28
2022-08-17T05:00:18.791Z,81.18
2022-08-17T05:01:23.229Z,81.28
2022-08-17T05:02:19.801Z,81.18
2022-08-17T05:03:18.762Z,80.94
2022-08-17T05:04:33.402Z,80.74
2022-08-17T05:05:19.741Z,80.33
2022-08-17T05:06:18.731Z,80.04
2022-08-17T05:07:23.503Z,79.90
2022-08-17T05:08:19.734Z,79.80
2022-08-17T05:09:18.692Z,79.49
2022-08-17T05:10:18.682Z,79.29
2022-08-17T05:11:18.674Z,78.96
2022-08-17T05:12:18.662Z,78.75
2022-08-17T05:13:18.672Z,78.55
2022-08-17T05:14:18.645Z,78.45
2022-08-17T05:15:18.623Z,78.11
2022-08-17T05:16:18.622Z,77.91
2022-08-17T05:17:18.603Z,77.91
2022-08-17T05:18:18.602Z,77.91
2022-08-17T05:19:18.624Z,77.70
2022-08-17T05:20:18.571Z,77.61
2022-08-17T05:21:18.557Z,77.70
2022-08-17T05:22:18.544Z,77.70
2022-08-17T05:23:18.532Z,77.61
2022-08-17T05:24:39.114Z,77.61
2022-08-17T05:25:19.534Z,77.61
2022-08-17T05:26:26.319Z,77.61
2022-08-17T05:27:19.496Z,77.61
2022-08-17T05:28:18.505Z,77.50
2022-08-17T05:29:18.454Z,77.50
2022-08-17T05:30:18.454Z,77.50
2022-08-17T05:31:18.458Z,77.61
2022-08-17T05:32:37.773Z,77.70
2022-08-17T05:33:19.416Z,77.70
2022-08-17T05:34:18.405Z,77.70
2022-08-17T05:35:18.394Z,77.81
2022-08-17T05:36:43.414Z,77.91
2022-08-17T05:37:19.373Z,77.91
2022-08-17T05:38:18.355Z,78.11
2022-08-17T05:39:18.346Z,77.91
2022-08-17T05:40:18.336Z,77.91
2022-08-17T05:41:18.316Z,78.01
2022-08-17T05:42:18.337Z,78.01
2022-08-17T05:43:18.305Z,77.81
2022-08-17T05:44:18.287Z,77.77
2022-08-17T05:45:39.877Z,77.57
2022-08-17T05:46:19.267Z,77.47
2022-08-17T05:47:18.262Z,77.27
2022-08-17T05:48:18.260Z,76.93
2022-08-17T05:49:18.229Z,76.73
2022-08-17T05:50:19.586Z,76.43
2022-08-17T05:51:19.219Z,76.23
2022-08-17T05:52:18.898Z,75.89
2022-08-17T05:53:18.209Z,75.68
2022-08-17T05:54:18.176Z,75.05
2022-08-17T05:55:18.162Z,75.05
2022-08-17T05:56:30.179Z,74.65
2022-08-17T05:57:20.873Z,74.31
2022-08-17T05:58:18.130Z,74.21
2022-08-17T05:59:18.138Z,73.81
2022-08-17T06:00:20.160Z,73.37
2022-08-17T06:01:18.155Z,73.17
2022-08-17T06:02:18.082Z,72.83
2022-08-17T06:03:18.080Z,72.33
2022-08-17T06:04:18.088Z,71.50
2022-08-17T06:05:18.084Z,71.00
2022-08-17T06:06:18.045Z,70.86
2022-08-17T06:07:18.023Z,70.26
2022-08-17T06:08:18.021Z,69.73
2022-08-17T06:09:24.765Z,68.89
2022-08-17T06:10:19.018Z,68.39
2022-08-17T06:11:19.769Z,68.26
2022-08-17T06:12:19.871Z,67.63
2022-08-17T06:13:17.961Z,66.59
2022-08-17T06:14:17.959Z,65.86
2022-08-17T06:15:17.941Z,65.43
2022-08-17T06:16:33.859Z,65.56
2022-08-17T06:17:18.914Z,65.83
2022-08-17T06:18:19.204Z,65.43
2022-08-17T06:19:17.892Z,64.80
2022-08-17T06:20:17.883Z,64.40
2022-08-17T06:21:17.874Z,64.37
2022-08-17T06:22:18.885Z,63.84
2022-08-17T06:23:17.851Z,63.61
2022-08-17T06:24:17.843Z,63.11
2022-08-17T06:25:17.827Z,62.12
2022-08-17T06:26:17.822Z,62.41
2022-08-17T06:27:17.834Z,62.48
2022-08-17T06:28:17.794Z,62.18
2022-08-17T06:29:18.875Z,61.66
2022-08-17T06:30:17.778Z,60.93
2022-08-17T06:31:17.765Z,61.16
2022-08-17T06:32:17.754Z,61.55
2022-08-17T06:33:17.757Z,61.69
2022-08-17T06:34:17.735Z,62.29
2022-08-17T06:35:17.722Z,62.31
2022-08-17T06:36:17.724Z,63.04
2022-08-17T06:37:17.696Z,63.44
2022-08-17T06:38:37.007Z,63.47
2022-08-17T06:39:18.686Z,64.30
2022-08-17T06:40:17.667Z,64.90
2022-08-17T06:41:17.655Z,65.43
2022-08-17T06:43:02.513Z,65.73
2022-08-17T06:43:18.649Z,66.06
2022-08-17T06:44:43.513Z,66.26
2022-08-17T06:45:18.618Z,66.46
2022-08-17T06:46:17.599Z,66.99
2022-08-17T06:47:28.815Z,67.29
2022-08-17T06:48:18.591Z,67.49
2022-08-17T06:49:17.586Z,67.69
2022-08-17T06:50:17.560Z,67.59
2022-08-17T06:51:17.538Z,67.36
2022-08-17T06:52:37.123Z,67.46
2022-08-17T06:53:18.518Z,67.26
2022-08-17T06:54:17.538Z,67.06
2022-08-17T06:55:18.095Z,67.16
2022-08-17T06:56:17.489Z,67.06
2022-08-17T06:57:17.479Z,67.19
2022-08-17T06:58:17.469Z,67.36
2022-08-17T06:59:17.451Z,67.16
2022-08-17T07:00:17.460Z,66.63
2022-08-17T07:01:17.470Z,66.33
2022-08-17T07:02:17.420Z,65.90
2022-08-17T07:03:17.410Z,65.87
2022-08-17T07:04:17.400Z,65.97
2022-08-17T07:05:17.410Z,65.14
2022-08-17T07:06:17.380Z,64.84
2022-08-17T07:07:17.361Z,65.41
2022-08-17T07:08:17.352Z,65.20
2022-08-17T07:09:17.342Z,64.48
2022-08-17T07:10:17.342Z,64.07
2022-08-17T07:11:17.342Z,63.55
2022-08-17T07:12:17.311Z,62.92
2022-08-17T07:13:17.293Z,62.72
2022-08-17T07:14:17.579Z,62.19
2022-08-17T07:15:17.273Z,61.67
2022-08-17T07:16:17.274Z,61.27
2022-08-17T07:17:17.296Z,61.24
2022-08-17T07:18:17.261Z,60.55
2022-08-17T07:19:17.244Z,60.44
2022-08-17T07:20:17.223Z,60.05
2022-08-17T07:21:19.113Z,59.55
2022-08-17T07:22:17.264Z,59.65
2022-08-17T07:23:17.184Z,59.85
2022-08-17T07:24:29.839Z,60.17
2022-08-17T07:25:18.164Z,60.47
2022-08-17T07:26:17.156Z,60.57
2022-08-17T07:27:17.145Z,60.60
2022-08-17T07:28:17.155Z,61.10
2022-08-17T07:29:17.145Z,61.00
2022-08-17T07:30:17.114Z,60.70
2022-08-17T07:31:17.114Z,61.20
2022-08-17T07:32:17.086Z,61.99
2022-08-17T07:33:17.085Z,62.40
2022-08-17T07:34:17.095Z,61.80
2022-08-17T07:35:17.080Z,61.30
2022-08-17T07:36:17.049Z,61.20
2022-08-17T07:37:17.028Z,61.67
2022-08-17T07:38:25.788Z,61.37
2022-08-17T07:39:18.027Z,60.97
2022-08-17T07:40:17.238Z,61.07
2022-08-17T07:41:16.994Z,61.37
2022-08-17T07:42:16.981Z,61.67
2022-08-17T07:43:22.071Z,61.17
2022-08-17T07:44:17.989Z,61.27
2022-08-17T07:45:16.949Z,60.77
2022-08-17T07:46:16.939Z,60.38
2022-08-17T07:47:16.920Z,59.88
2022-08-17T07:48:16.919Z,60.17
2022-08-17T07:49:16.908Z,60.47
2022-08-17T07:50:16.939Z,61.37
2022-08-17T07:51:16.880Z,60.68
2022-08-17T07:52:47.415Z,60.77
2022-08-17T07:53:17.861Z,60.38
2022-08-17T07:54:16.850Z,60.47
2022-08-17T07:55:16.843Z,60.57
2022-08-17T07:56:16.852Z,61.07
2022-08-17T07:57:16.811Z,60.94
2022-08-17T07:58:16.811Z,60.05
2022-08-17T07:59:16.793Z,60.14
2022-08-17T08:00:16.828Z,60.02
2022-08-17T08:01:17.809Z,59.52
2022-08-17T08:02:16.987Z,59.22
2022-08-17T08:03:16.742Z,58.62
2022-08-17T08:04:19.524Z,58.62
2022-08-17T08:05:29.857Z,58.23
2022-08-17T08:06:17.722Z,58.03
2022-08-17T08:07:16.705Z,58.03
2022-08-17T08:08:16.732Z,57.81
2022-08-17T08:09:16.685Z,57.70
2022-08-17T08:10:16.674Z,57.08
2022-08-17T08:11:16.664Z,55.76
2022-08-17T08:12:16.666Z,54.94
2022-08-17T08:13:16.652Z,54.32
2022-08-17T08:14:16.656Z,54.39
2022-08-17T08:15:16.616Z,53.90
2022-08-17T08:16:16.615Z,53.80
2022-08-17T08:17:16.595Z,53.31
2022-08-17T08:18:16.586Z,53.01
2022-08-17T08:19:20.871Z,52.49
2022-08-17T08:20:42.480Z,52.29
2022-08-17T08:21:17.548Z,52.29
2022-08-17T08:22:16.547Z,51.97
2022-08-17T08:23:16.539Z,51.87
2022-08-17T08:24:16.528Z,51.67
2022-08-17T08:25:16.528Z,52.26
2022-08-17T08:26:18.558Z,51.97
2022-08-17T08:27:16.488Z,52.29
2022-08-17T08:28:16.477Z,52.61
2022-08-17T08:29:16.468Z,53.23
2022-08-17T08:30:16.458Z,53.01
2022-08-17T08:31:16.458Z,53.80
2022-08-17T08:32:16.442Z,53.11
2022-08-17T08:33:16.423Z,53.01
2022-08-17T08:34:53.184Z,53.13
2022-08-17T08:35:17.410Z,53.13
2022-08-17T08:36:56.871Z,53.03
2022-08-17T08:37:22.618Z,53.23
2022-08-17T08:38:17.370Z,53.33
2022-08-17T08:39:16.360Z,53.96
2022-08-17T08:40:16.344Z,54.05
2022-08-17T08:41:16.347Z,54.15
2022-08-17T08:42:16.352Z,54.25
2022-08-17T08:43:16.335Z,54.47
2022-08-17T08:44:16.302Z,54.77
2022-08-17T08:45:16.295Z,55.07
2022-08-17T08:46:16.302Z,54.68
2022-08-17T08:47:16.273Z,54.97
2022-08-17T08:48:22.847Z,55.40
2022-08-17T08:49:17.251Z,56.02
2022-08-17T08:50:37.006Z,56.02
2022-08-17T08:51:17.225Z,56.02
2022-08-17T08:52:16.213Z,56.41
2022-08-17T08:53:16.216Z,56.81
2022-08-17T08:54:16.203Z,57.60
2022-08-17T08:55:16.182Z,58.10
2022-08-17T08:56:16.164Z,60.98
2022-08-17T08:57:29.048Z,59.30
2022-08-17T08:58:32.146Z,61.88
2022-08-17T08:59:17.205Z,62.80
2022-08-17T09:00:16.126Z,63.79
2022-08-17T09:01:16.977Z,60.12
2022-08-17T09:02:16.097Z,59.75
2022-08-17T09:03:16.103Z,60.05
2022-08-17T09:04:24.649Z,63.13
2022-08-17T09:05:17.105Z,64.42
2022-08-17T09:06:37.423Z,63.53
2022-08-17T09:07:17.057Z,66.91
2022-08-17T09:08:16.036Z,66.81
2022-08-17T09:09:16.027Z,65.72
2022-08-17T09:10:16.008Z,66.11
2022-08-17T09:11:16.028Z,65.12
2022-08-17T09:12:16.010Z,66.81
2022-08-17T09:13:15.977Z,63.82
2022-08-17T09:14:21.760Z,64.32
2022-08-17T09:15:16.959Z,60.77
2022-08-17T09:16:15.948Z,62.37
2022-08-17T09:17:16.392Z,62.66
2022-08-17T09:18:59.333Z,63.59
2022-08-17T09:19:16.919Z,62.49
2022-08-17T09:20:27.519Z,63.29
2022-08-17T09:21:18.254Z,63.19
2022-08-17T09:22:15.950Z,62.62
2022-08-17T09:23:15.869Z,63.42
2022-08-17T09:24:15.871Z,62.62
2022-08-17T09:25:16.853Z,64.88
2022-08-17T09:26:15.840Z,65.28
2022-08-17T09:27:15.833Z,64.88
2022-08-17T09:28:15.840Z,65.58
2022-08-17T09:29:15.820Z,66.77
2022-08-17T09:30:15.793Z,66.27
2022-08-17T09:31:15.781Z,66.08
2022-08-17T09:32:15.772Z,66.08
2022-08-17T09:33:15.771Z,66.77
2022-08-17T09:34:15.772Z,67.07
2022-08-17T09:35:15.751Z,64.98
2022-08-17T09:36:15.733Z,65.91
2022-08-17T09:37:15.730Z,66.50
2022-08-17T09:38:15.703Z,67.13
2022-08-17T09:39:15.703Z,68.63
2022-08-17T09:40:15.820Z,69.13
2022-08-17T09:41:15.674Z,66.94
2022-08-17T09:42:15.664Z,68.83
2022-08-17T09:43:15.657Z,68.93
2022-08-17T09:44:23.290Z,67.63
2022-08-17T09:45:16.655Z,67.83
2022-08-17T09:46:15.615Z,68.23
2022-08-17T09:47:15.616Z,70.12
2022-08-17T09:48:15.604Z,69.43
2022-08-17T09:49:15.586Z,69.53
2022-08-17T09:50:15.622Z,69.32
2022-08-17T09:51:15.595Z,68.23
2022-08-17T09:52:15.554Z,68.90
2022-08-17T09:53:15.545Z,68.70
2022-08-17T09:54:37.951Z,70.29
2022-08-17T09:55:16.529Z,70.39
2022-08-17T09:56:15.509Z,73.44
2022-08-17T09:57:29.927Z,73.14
2022-08-17T09:58:16.487Z,71.12
2022-08-17T09:59:15.496Z,71.61
2022-08-17T10:00:15.505Z,74.16
2022-08-17T10:01:15.523Z,73.37
2022-08-17T10:02:15.448Z,69.09
2022-08-17T10:03:15.462Z,69.85
2022-08-17T10:04:17.757Z,70.06
2022-08-17T10:05:15.409Z,69.92
2022-08-17T10:06:21.628Z,70.72
2022-08-17T10:07:16.389Z,69.49
2022-08-17T10:08:15.398Z,67.87
2022-08-17T10:09:15.370Z,65.19
2022-08-17T10:10:15.349Z,64.89
2022-08-17T10:11:15.359Z,65.78
2022-08-17T10:12:17.205Z,65.42
2022-08-17T10:13:15.319Z,66.11
2022-08-17T10:14:37.457Z,65.22
2022-08-17T10:15:17.398Z,67.31
2022-08-17T10:16:15.295Z,65.42
2022-08-17T10:17:15.283Z,64.92
2022-08-17T10:18:15.261Z,64.33
2022-08-17T10:19:15.261Z,69.95
2022-08-17T10:20:15.381Z,65.22
2022-08-17T10:21:15.232Z,67.01
2022-08-17T10:22:35.244Z,68.30
2022-08-17T10:23:16.217Z,64.33
2022-08-17T10:24:15.240Z,66.81
2022-08-17T10:25:21.360Z,67.31
2022-08-17T10:26:16.181Z,66.11
2022-08-17T10:27:15.170Z,66.55
2022-08-17T10:28:20.172Z,65.55
2022-08-17T10:29:16.139Z,65.25
2022-08-17T10:30:15.192Z,64.39
2022-08-17T10:31:34.399Z,64.59
2022-08-17T10:32:16.107Z,64.29
2022-08-17T10:33:15.120Z,64.98
2022-08-17T10:34:15.080Z,64.98
2022-08-17T10:35:15.070Z,65.55
2022-08-17T10:36:15.064Z,65.82
2022-08-17T10:37:15.072Z,65.72
2022-08-17T10:38:15.039Z,63.24
2022-08-17T10:39:15.060Z,64.10
2022-08-17T10:40:15.154Z,66.75
2022-08-17T10:41:15.023Z,65.20
2022-08-17T10:42:15.021Z,63.18
2022-08-17T10:43:16.008Z,62.46
2022-08-17T10:44:38.145Z,63.02
2022-08-17T10:45:15.963Z,60.25
2022-08-17T10:46:31.269Z,60.13
2022-08-17T10:47:15.955Z,59.73
2022-08-17T10:48:14.945Z,59.63
2022-08-17T10:49:14.925Z,57.78
2022-08-17T10:50:14.923Z,57.81
2022-08-17T10:51:14.893Z,57.54
2022-08-17T10:52:15.017Z,57.64
2022-08-17T10:53:19.793Z,58.56
2022-08-17T10:54:15.894Z,59.92
2022-08-17T10:55:14.877Z,59.52
2022-08-17T10:56:14.844Z,58.50
2022-08-17T10:57:14.836Z,58.90
2022-08-17T10:58:14.816Z,58.87
2022-08-17T10:59:14.816Z,57.58
2022-08-17T11:00:14.844Z,57.68
2022-08-17T11:01:14.868Z,57.88
2022-08-17T11:02:14.776Z,57.78
2022-08-17T11:03:14.767Z,57.88
2022-08-17T11:04:14.757Z,57.78
2022-08-17T11:05:14.766Z,57.61
2022-08-17T11:06:14.728Z,57.61
2022-08-17T11:07:14.721Z,57.81
2022-08-17T11:08:14.708Z,57.90
2022-08-17T11:09:14.741Z,58.40
2022-08-17T11:10:14.692Z,58.63
2022-08-17T11:11:14.713Z,59.30
2022-08-17T11:12:14.670Z,58.40
2022-08-17T11:13:14.660Z,57.68
2022-08-17T11:14:14.650Z,58.47
2022-08-17T11:15:14.639Z,57.88
2022-08-17T11:16:14.621Z,58.47
2022-08-17T11:17:14.645Z,57.39
2022-08-17T11:18:14.601Z,58.18
2022-08-17T11:19:14.589Z,57.56
2022-08-17T11:20:14.581Z,57.06
2022-08-17T11:21:14.571Z,56.96
2022-08-17T11:22:14.561Z,57.85
2022-08-17T11:23:14.576Z,56.96
2022-08-17T11:24:14.541Z,56.57
2022-08-17T11:25:14.542Z,56.34
2022-08-17T11:26:14.534Z,56.57
2022-08-17T11:27:14.512Z,54.56
2022-08-17T11:28:14.522Z,56.74
2022-08-17T11:29:14.482Z,55.26
2022-08-17T11:30:14.760Z,55.92
2022-08-17T11:31:14.486Z,54.46
2022-08-17T11:32:14.513Z,54.86
2022-08-17T11:33:14.474Z,55.65
2022-08-17T11:34:15.467Z,55.08
2022-08-17T11:35:14.422Z,56.46
2022-08-17T11:36:14.444Z,56.14
2022-08-17T11:37:14.407Z,56.04
2022-08-17T11:38:16.282Z,54.83
2022-08-17T11:39:14.385Z,56.12
2022-08-17T11:40:14.478Z,54.90
2022-08-17T11:41:14.357Z,54.90
2022-08-17T11:42:14.337Z,54.51
2022-08-17T11:43:14.336Z,55.87
2022-08-17T11:44:14.316Z,55.99
2022-08-17T11:45:19.038Z,55.49
2022-08-17T11:46:15.327Z,56.02
2022-08-17T11:47:14.338Z,56.21
2022-08-17T11:48:27.937Z,56.34
2022-08-17T11:49:15.274Z,57.06
2022-08-17T11:50:14.256Z,57.58
2022-08-17T11:51:14.270Z,60.55
2022-08-17T11:52:14.238Z,60.28
2022-08-17T11:53:14.219Z,59.52
2022-08-17T11:54:32.293Z,59.72
2022-08-17T11:55:34.398Z,58.92
2022-08-17T11:56:15.218Z,59.45
2022-08-17T11:57:14.179Z,59.35
2022-08-17T11:58:14.172Z,61.21
2022-08-17T11:59:14.162Z,59.69
2022-08-17T12:00:14.152Z,60.62
2022-08-17T12:01:16.163Z,59.11
2022-08-17T12:02:14.174Z,57.01
2022-08-17T12:03:14.153Z,56.09
2022-08-17T12:04:14.125Z,54.97
2022-08-17T12:05:14.114Z,54.28
2022-08-17T12:06:14.081Z,53.89
2022-08-17T12:07:14.071Z,54.02
2022-08-17T12:08:14.093Z,54.11
2022-08-17T12:09:14.061Z,53.72
2022-08-17T12:10:14.035Z,53.50
2022-08-17T12:11:14.022Z,54.46
2022-08-17T12:12:14.637Z,54.06
2022-08-17T12:13:14.002Z,53.05
2022-08-17T12:14:19.222Z,51.57
2022-08-17T12:15:14.983Z,52.16
2022-08-17T12:16:13.988Z,50.29
2022-08-17T12:17:13.963Z,50.81
2022-08-17T12:18:14.944Z,50.88
2022-08-17T12:19:13.945Z,51.28
2022-08-17T12:20:14.802Z,50.26
2022-08-17T12:21:13.914Z,50.09
2022-08-17T12:22:13.903Z,50.29
2022-08-17T12:23:13.895Z,49.99
2022-08-17T12:24:13.878Z,50.46
2022-08-17T12:25:13.897Z,49.50
2022-08-17T12:26:13.857Z,49.99
2022-08-17T12:27:13.846Z,50.59
2022-08-17T12:28:17.940Z,50.78
2022-08-17T12:29:18.027Z,49.90
2022-08-17T12:30:14.846Z,49.79
2022-08-17T12:31:13.807Z,50.68
2022-08-17T12:32:13.789Z,50.46
2022-08-17T12:33:13.791Z,51.15
2022-08-17T12:34:14.770Z,49.65
2022-08-17T12:35:13.760Z,48.96
2022-08-17T12:36:13.768Z,48.96
2022-08-17T12:37:13.770Z,48.83
2022-08-17T12:38:31.806Z,48.17
2022-08-17T12:39:21.336Z,48.47
2022-08-17T12:40:14.770Z,48.49
2022-08-17T12:41:13.698Z,48.49
2022-08-17T12:42:13.724Z,48.10
2022-08-17T12:43:13.670Z,48.61
2022-08-17T12:44:13.658Z,48.10
2022-08-17T12:45:13.652Z,48.39
2022-08-17T12:46:15.441Z,48.39
2022-08-17T12:47:18.013Z,47.31
2022-08-17T12:48:14.642Z,48.10
2022-08-17T12:49:13.612Z,47.80
2022-08-17T12:50:28.194Z,48.49
2022-08-17T12:51:14.583Z,47.48
2022-08-17T12:52:13.572Z,47.01